createdAt,value
2024-03-05T00:01:00.959Z,11.30
2024-03-05T00:03:46.277Z,11.40
2024-03-05T00:06:18.117Z,10.00
2024-03-05T00:08:49.900Z,10.80
2024-03-05T00:11:22.616Z,12.80
2024-03-05T00:13:54.631Z,12.30
2024-03-05T00:16:26.502Z,11.30
2024-03-05T00:18:58.260Z,11.40
2024-03-05T00:21:30.016Z,11.90
2024-03-05T00:24:02.567Z,11.30
2024-03-05T00:26:34.507Z,11.10
2024-03-05T00:29:06.569Z,12.00
2024-03-05T00:31:41.137Z,12.10
2024-03-05T00:34:12.962Z,11.10
2024-03-05T00:36:45.070Z,12.30
2024-03-05T00:39:16.936Z,10.90
2024-03-05T00:41:49.510Z,12.30
2024-03-05T00:44:21.308Z,11.70
2024-03-05T00:46:54.063Z,11.30
2024-03-05T00:49:26.060Z,10.70
2024-03-05T00:51:57.859Z,12.50
2024-03-05T00:54:30.120Z,12.70
2024-03-05T00:57:01.907Z,11.50
2024-03-05T00:59:33.688Z,11.60
2024-03-05T01:02:05.920Z,11.10
2024-03-05T01:04:37.776Z,10.80
2024-03-05T01:07:10.893Z,11.40
2024-03-05T01:09:42.664Z,10.50
2024-03-05T01:12:14.929Z,12.40
2024-03-05T01:14:46.740Z,11.50
2024-03-05T01:17:18.594Z,11.00
2024-03-05T01:19:50.514Z,10.50
2024-03-05T01:22:22.516Z,11.60
2024-03-05T01:24:54.432Z,11.10
2024-03-05T01:27:26.227Z,11.50
2024-03-05T01:30:00.866Z,10.50
2024-03-05T01:32:33.718Z,10.80
2024-03-05T01:35:10.233Z,10.70
2024-03-05T01:37:42.701Z,10.90
2024-03-05T01:40:15.596Z,12.10
2024-03-05T01:42:47.405Z,10.90
2024-03-05T01:45:20.452Z,10.90
2024-03-05T01:47:52.623Z,11.20
2024-03-05T01:50:24.841Z,11.00
2024-03-05T01:52:56.985Z,12.40
2024-03-05T01:55:28.984Z,10.10
2024-03-05T01:58:05.142Z,9.90
2024-03-05T02:00:38.466Z,9.40
2024-03-05T02:03:12.435Z,9.10
2024-03-05T02:05:45.754Z,9.10
2024-03-05T02:08:19.201Z,10.30
2024-03-05T02:10:51.348Z,9.20
2024-03-05T02:13:23.510Z,9.50
2024-03-05T02:15:55.465Z,9.40
2024-03-05T02:18:27.413Z,8.70
2024-03-05T02:21:05.072Z,9.30
2024-03-05T02:23:36.829Z,9.20
2024-03-05T02:26:08.811Z,7.40
2024-03-05T02:28:41.606Z,7.40
2024-03-05T02:31:13.612Z,8.20
2024-03-05T02:33:46.092Z,8.00
2024-03-05T02:36:17.904Z,7.30
2024-03-05T02:38:50.009Z,7.30
2024-03-05T02:41:22.309Z,8.20
2024-03-05T02:43:54.314Z,7.90
2024-03-05T02:46:26.845Z,7.10
2024-03-05T02:48:58.704Z,6.80
2024-03-05T02:51:30.579Z,7.10
2024-03-05T02:54:02.365Z,5.60
2024-03-05T02:56:34.906Z,5.60
2024-03-05T02:59:06.819Z,5.90
2024-03-05T03:01:38.721Z,6.00
2024-03-05T03:04:11.444Z,6.10
2024-03-05T03:06:44.276Z,5.90
2024-03-05T03:09:16.058Z,6.60
2024-03-05T03:11:50.850Z,8.50
2024-03-05T03:14:22.699Z,9.40
2024-03-05T03:16:55.606Z,9.80
2024-03-05T03:19:27.463Z,10.10
2024-03-05T03:21:59.230Z,11.20
2024-03-05T03:24:31.028Z,11.10
2024-03-05T03:27:02.963Z,11.90
2024-03-05T03:29:35.249Z,13.20
2024-03-05T03:32:08.347Z,12.40
2024-03-05T03:34:42.481Z,12.60
2024-03-05T03:37:14.464Z,13.20
2024-03-05T03:39:47.213Z,13.00
2024-03-05T03:42:19.273Z,13.70
2024-03-05T03:44:51.663Z,13.10
2024-03-05T03:47:23.829Z,15.20
2024-03-05T03:49:55.729Z,15.20
2024-03-05T03:52:27.549Z,15.50
2024-03-05T03:54:59.397Z,15.70
2024-03-05T03:57:33.643Z,15.90
2024-03-05T04:00:09.034Z,15.70
2024-03-05T04:02:41.788Z,15.50
2024-03-05T04:05:14.603Z,15.60
2024-03-05T04:07:46.487Z,16.50
2024-03-05T04:10:18.750Z,16.50
2024-03-05T04:12:50.734Z,15.80
2024-03-05T04:15:22.917Z,15.50
2024-03-05T04:17:54.731Z,15.60
2024-03-05T04:20:26.545Z,15.60
2024-03-05T04:22:58.415Z,15.80
2024-03-05T04:25:35.953Z,16.40
2024-03-05T04:28:12.284Z,16.90
2024-03-05T04:30:47.436Z,15.10
2024-03-05T04:33:21.522Z,14.70
2024-03-05T04:35:53.349Z,14.70
2024-03-05T04:38:25.112Z,13.90
2024-03-05T04:40:57.002Z,13.50
2024-03-05T04:43:28.834Z,14.70
2024-03-05T04:46:00.909Z,12.50
2024-03-05T04:48:32.983Z,12.90
2024-03-05T04:51:04.785Z,13.80
2024-03-05T04:53:37.296Z,12.50
2024-03-05T04:56:09.553Z,11.50
2024-03-05T04:58:42.136Z,10.20
2024-03-05T05:01:14.069Z,12.00
2024-03-05T05:03:45.861Z,11.30
2024-03-05T05:06:17.613Z,11.90
2024-03-05T05:08:50.333Z,11.80
2024-03-05T05:11:22.892Z,10.60
2024-03-05T05:13:54.799Z,10.50
2024-03-05T05:16:27.798Z,11.90
2024-03-05T05:18:59.982Z,11.00
2024-03-05T05:21:31.766Z,10.80
2024-03-05T05:24:03.578Z,11.70
2024-03-05T05:26:35.539Z,10.90
2024-03-05T05:29:07.377Z,11.10
2024-03-05T05:31:39.239Z,11.90
2024-03-05T05:34:11.144Z,15.60
2024-03-05T05:36:42.964Z,12.00
2024-03-05T05:39:16.146Z,10.50
2024-03-05T05:41:48.161Z,10.40
2024-03-05T05:44:20.099Z,9.70
2024-03-05T05:46:52.056Z,9.60
2024-03-05T05:49:24.420Z,9.70
2024-03-05T05:51:56.319Z,9.80
2024-03-05T05:54:30.513Z,9.80
2024-03-05T05:57:03.144Z,9.70
2024-03-05T05:59:35.326Z,9.30
2024-03-05T06:02:10.030Z,10.90
2024-03-05T06:04:44.798Z,10.00
2024-03-05T06:07:16.754Z,9.00
2024-03-05T06:09:48.661Z,9.30
2024-03-05T06:12:23.936Z,9.40
2024-03-05T06:14:56.013Z,9.60
2024-03-05T06:17:27.998Z,9.30
2024-03-05T06:20:00.212Z,8.80
2024-03-05T06:22:34.690Z,9.60
2024-03-05T06:25:08.329Z,10.00
2024-03-05T06:27:40.608Z,10.70
2024-03-05T06:30:16.535Z,9.60
2024-03-05T06:32:49.817Z,9.70
2024-03-05T06:35:24.062Z,9.60
2024-03-05T06:37:56.056Z,9.90
2024-03-05T06:40:28.179Z,10.70
2024-03-05T06:43:06.648Z,9.90
2024-03-05T06:45:39.332Z,10.40
2024-03-05T06:48:17.553Z,10.40
2024-03-05T06:50:53.686Z,11.70
2024-03-05T06:53:57.910Z,11.40
2024-03-05T06:56:43.593Z,11.60
2024-03-05T06:59:15.372Z,12.70
2024-03-05T07:01:47.289Z,10.80
2024-03-05T07:04:19.145Z,11.50
2024-03-05T07:06:51.250Z,12.70
2024-03-05T07:09:28.348Z,12.40
2024-03-05T07:12:00.795Z,12.80
2024-03-05T07:14:33.193Z,12.80
2024-03-05T07:17:07.523Z,12.70
2024-03-05T07:19:39.402Z,15.60
2024-03-05T07:22:13.060Z,14.30
2024-03-05T07:24:44.834Z,12.30
2024-03-05T07:27:16.612Z,15.30
2024-03-05T07:29:48.444Z,18.80
2024-03-05T07:32:20.238Z,13.60
2024-03-05T07:34:52.096Z,12.90
2024-03-05T07:37:23.981Z,11.90
2024-03-05T07:39:55.769Z,17.00
2024-03-05T07:42:27.536Z,13.60
2024-03-05T07:44:59.321Z,13.00
2024-03-05T07:47:32.023Z,12.80
2024-03-05T07:50:04.057Z,16.80
2024-03-05T07:52:35.982Z,13.80
2024-03-05T07:55:11.100Z,12.60
2024-03-05T07:57:43.722Z,12.60
2024-03-05T08:00:18.488Z,13.00
2024-03-05T08:02:51.434Z,15.70
2024-03-05T08:05:24.475Z,16.40
2024-03-05T08:07:57.700Z,12.50
2024-03-05T08:10:30.326Z,12.10
2024-03-05T08:13:03.273Z,52.60
2024-03-05T08:15:35.235Z,43.50
2024-03-05T08:18:11.979Z,26.90
2024-03-05T08:20:43.839Z,17.20
2024-03-05T08:23:15.596Z,13.60
2024-03-05T08:25:50.340Z,13.20
2024-03-05T08:28:22.256Z,26.80
2024-03-05T08:30:55.050Z,14.10
2024-03-05T08:33:29.489Z,48.90
2024-03-05T08:36:01.273Z,42.20
2024-03-05T08:38:33.068Z,26.10
2024-03-05T08:41:05.257Z,52.90
2024-03-05T08:43:37.202Z,46.90
2024-03-05T08:46:09.631Z,31.80
2024-03-05T08:48:41.677Z,23.30
2024-03-05T08:51:13.647Z,14.30
2024-03-05T08:53:45.465Z,25.80
2024-03-05T08:56:17.272Z,16.50
2024-03-05T08:58:49.130Z,25.70
2024-03-05T09:01:21.043Z,16.20
2024-03-05T09:03:53.446Z,33.80
2024-03-05T09:06:25.228Z,18.00
2024-03-05T09:08:57.003Z,14.60
2024-03-05T09:11:29.030Z,20.10
2024-03-05T09:14:00.952Z,39.40
2024-03-05T09:16:33.954Z,44.10
2024-03-05T09:19:06.020Z,18.10
2024-03-05T09:21:37.775Z,21.90
2024-03-05T09:24:10.604Z,13.80
2024-03-05T09:26:42.381Z,13.50
2024-03-05T09:29:16.438Z,13.00
2024-03-05T09:31:48.550Z,12.20
2024-03-05T09:34:21.275Z,12.40
2024-03-05T09:36:53.146Z,12.70
2024-03-05T09:39:24.897Z,10.80
2024-03-05T09:41:56.924Z,9.90
2024-03-05T09:44:29.908Z,9.80
2024-03-05T09:47:03.291Z,9.00
2024-03-05T09:49:35.694Z,8.90
2024-03-05T09:52:09.095Z,10.10
2024-03-05T09:54:42.997Z,8.80
2024-03-05T09:57:15.594Z,8.20
2024-03-05T09:59:48.248Z,8.80
2024-03-05T10:02:20.532Z,9.00
2024-03-05T10:04:55.769Z,7.70
2024-03-05T10:07:29.044Z,8.40
2024-03-05T10:10:12.544Z,6.80
2024-03-05T10:12:45.213Z,8.00
2024-03-05T10:15:20.131Z,7.60
2024-03-05T10:17:54.384Z,8.70
2024-03-05T10:20:33.407Z,7.70
2024-03-05T10:23:09.192Z,9.80
2024-03-05T10:25:41.591Z,10.60
2024-03-05T10:28:14.208Z,9.20
2024-03-05T10:30:48.262Z,8.20
2024-03-05T10:33:24.743Z,7.40
2024-03-05T10:35:57.535Z,8.70
2024-03-05T10:38:29.259Z,8.10
2024-03-05T10:41:01.819Z,7.50
2024-03-05T10:43:37.004Z,7.40
2024-03-05T10:46:08.871Z,7.80
2024-03-05T10:48:42.699Z,9.00
2024-03-05T10:51:16.175Z,9.30
2024-03-05T10:53:49.943Z,7.80
2024-03-05T10:56:29.140Z,9.60
2024-03-05T10:59:23.918Z,10.50
2024-03-05T11:01:57.551Z,9.30
2024-03-05T11:04:33.196Z,8.60
2024-03-05T11:07:07.617Z,9.30
2024-03-05T11:09:43.208Z,9.50
2024-03-05T11:12:19.931Z,9.70
2024-03-05T11:14:51.715Z,9.70
2024-03-05T11:17:23.897Z,9.00
2024-03-05T11:19:57.834Z,8.70
2024-03-05T11:22:31.241Z,9.50
2024-03-05T11:25:07.125Z,10.40
2024-03-05T11:27:39.052Z,9.50
2024-03-05T11:30:16.983Z,8.90
2024-03-05T11:32:52.505Z,10.40
2024-03-05T11:35:27.313Z,10.10
2024-03-05T11:38:00.611Z,7.90
2024-03-05T11:40:35.469Z,8.60
2024-03-05T11:43:07.721Z,7.80
2024-03-05T11:45:50.356Z,8.80
2024-03-05T11:48:24.278Z,8.80
2024-03-05T11:50:56.854Z,8.70
2024-03-05T11:53:30.043Z,7.60
2024-03-05T11:56:09.761Z,8.80
2024-03-05T11:58:42.110Z,7.80
2024-03-05T12:01:16.949Z,8.10
2024-03-05T12:03:50.396Z,8.70
2024-03-05T12:06:22.336Z,7.90
2024-03-05T12:08:55.685Z,8.10
2024-03-05T12:11:27.714Z,8.30
2024-03-05T12:14:09.775Z,7.70
2024-03-05T12:16:41.662Z,7.50
2024-03-05T12:19:15.901Z,7.30
2024-03-05T12:21:47.815Z,7.30
2024-03-05T12:24:19.689Z,19.20
2024-03-05T12:26:51.764Z,12.70
2024-03-05T12:29:30.951Z,10.50
2024-03-05T12:32:06.459Z,8.10
2024-03-05T12:34:39.095Z,8.40
2024-03-05T12:37:12.765Z,11.90
2024-03-05T12:39:44.772Z,10.30
2024-03-05T12:42:24.714Z,7.90
2024-03-05T12:45:09.392Z,8.10
2024-03-05T12:47:42.506Z,7.10
2024-03-05T12:50:14.884Z,7.40
2024-03-05T12:52:46.815Z,7.40
2024-03-05T12:55:18.768Z,8.00
2024-03-05T12:57:50.711Z,7.00
2024-03-05T13:00:22.724Z,6.60
2024-03-05T13:02:54.688Z,6.50
2024-03-05T13:05:28.144Z,6.70
2024-03-05T13:08:00.335Z,7.50
2024-03-05T13:10:33.514Z,7.80
2024-03-05T13:13:05.759Z,7.70
2024-03-05T13:15:38.344Z,8.40
2024-03-05T13:18:10.409Z,7.80
2024-03-05T13:20:42.274Z,8.50
2024-03-05T13:23:14.094Z,8.20
2024-03-05T13:25:45.907Z,8.60
2024-03-05T13:28:17.716Z,8.90
2024-03-05T13:30:49.570Z,10.10
2024-03-05T13:33:35.160Z,9.30
2024-03-05T13:36:08.036Z,8.70
2024-03-05T13:38:39.883Z,8.80
2024-03-05T13:41:12.496Z,8.60
2024-03-05T13:43:44.343Z,8.80
2024-03-05T13:46:16.354Z,8.60
2024-03-05T13:48:50.528Z,9.10
2024-03-05T13:51:22.340Z,8.70
2024-03-05T13:53:54.362Z,8.60
2024-03-05T13:56:26.366Z,9.50
2024-03-05T13:58:59.043Z,10.00
2024-03-05T14:01:32.422Z,10.00
2024-03-05T14:04:09.634Z,10.30
2024-03-05T14:06:42.404Z,10.50
2024-03-05T14:09:15.089Z,10.00
2024-03-05T14:11:46.934Z,9.30
2024-03-05T14:14:21.309Z,9.40
2024-03-05T14:16:53.443Z,8.50
2024-03-05T14:19:25.262Z,13.40
2024-03-05T14:22:00.293Z,9.60
2024-03-05T14:24:32.120Z,9.80
2024-03-05T14:27:03.889Z,9.00
2024-03-05T14:29:35.711Z,13.60
2024-03-05T14:32:08.377Z,11.10
2024-03-05T14:34:43.446Z,8.80
2024-03-05T14:37:15.730Z,8.10
2024-03-05T14:39:47.499Z,9.00
2024-03-05T14:42:19.270Z,9.40
2024-03-05T14:44:51.046Z,8.20
2024-03-05T14:47:22.947Z,8.50
2024-03-05T14:49:54.772Z,8.50
2024-03-05T14:52:26.752Z,8.40
2024-03-05T14:55:01.473Z,9.00
2024-03-05T14:57:33.548Z,8.50
2024-03-05T15:00:06.000Z,8.10
2024-03-05T15:02:37.886Z,8.80
2024-03-05T15:05:12.110Z,9.60
2024-03-05T15:07:45.063Z,8.60
2024-03-05T15:10:20.461Z,8.30
2024-03-05T15:12:53.203Z,8.50
2024-03-05T15:15:25.905Z,9.00
2024-03-05T15:17:57.693Z,8.20
2024-03-05T15:20:29.576Z,7.90
2024-03-05T15:23:01.480Z,8.90
2024-03-05T15:25:35.900Z,7.60
2024-03-05T15:28:09.429Z,8.10
2024-03-05T15:30:41.302Z,7.70
2024-03-05T15:33:13.263Z,7.80
2024-03-05T15:35:45.246Z,8.00
2024-03-05T15:38:18.118Z,8.30
2024-03-05T15:40:50.087Z,8.00
2024-03-05T15:43:22.085Z,8.60
2024-03-05T15:45:54.097Z,7.80
2024-03-05T15:48:26.015Z,7.10
2024-03-05T15:50:57.980Z,7.60
2024-03-05T15:53:29.865Z,7.50
2024-03-05T15:56:13.056Z,7.70
2024-03-05T15:59:02.459Z,7.50
2024-03-05T16:01:35.146Z,8.40
2024-03-05T16:04:30.008Z,8.90
2024-03-05T16:07:02.775Z,10.10
2024-03-05T16:09:34.603Z,9.90
2024-03-05T16:12:07.671Z,10.10
2024-03-05T16:14:41.660Z,10.10
2024-03-05T16:17:14.266Z,11.70
2024-03-05T16:19:46.101Z,10.80
2024-03-05T16:22:17.985Z,11.50
2024-03-05T16:24:51.299Z,11.80
2024-03-05T16:27:24.029Z,10.90
2024-03-05T16:29:55.782Z,10.00
2024-03-05T16:32:27.975Z,9.90
2024-03-05T16:34:59.754Z,10.10
2024-03-05T16:37:33.549Z,10.50
2024-03-05T16:40:06.386Z,9.90
2024-03-05T16:42:40.612Z,10.50
2024-03-05T16:45:14.786Z,10.30
2024-03-05T16:47:47.755Z,11.60
2024-03-05T16:50:20.462Z,10.60
2024-03-05T16:52:53.433Z,12.80
2024-03-05T16:55:25.655Z,10.50
2024-03-05T16:58:00.126Z,12.60
2024-03-05T17:00:35.180Z,11.10
2024-03-05T17:03:12.349Z,11.30
2024-03-05T17:05:47.710Z,10.50
2024-03-05T17:08:22.108Z,9.70
2024-03-05T17:10:55.043Z,10.50
2024-03-05T17:13:30.948Z,10.50
2024-03-05T17:16:04.738Z,10.50
2024-03-05T17:18:36.694Z,9.90
2024-03-05T17:21:08.795Z,11.20
2024-03-05T17:23:43.792Z,11.30
2024-03-05T17:26:17.245Z,10.50
2024-03-05T17:28:49.260Z,12.20
2024-03-05T17:31:21.114Z,11.60
2024-03-05T17:33:53.608Z,15.40
2024-03-05T17:36:25.375Z,13.70
2024-03-05T17:38:57.128Z,11.80
2024-03-05T17:41:30.178Z,14.40
2024-03-05T17:44:02.028Z,13.60
2024-03-05T17:46:36.090Z,11.90
2024-03-05T17:49:09.223Z,13.80
2024-03-05T17:51:42.532Z,14.10
2024-03-05T17:54:14.299Z,15.80
2024-03-05T17:56:46.073Z,14.00
2024-03-05T17:59:17.851Z,14.40
2024-03-05T18:01:49.746Z,16.30
2024-03-05T18:04:21.766Z,16.00
2024-03-05T18:06:54.525Z,17.40
2024-03-05T18:09:26.876Z,22.30
2024-03-05T18:12:02.177Z,21.60
2024-03-05T18:14:34.043Z,22.10
2024-03-05T18:17:08.906Z,22.10
2024-03-05T18:19:41.035Z,20.10
2024-03-05T18:22:12.980Z,20.80
2024-03-05T18:24:44.749Z,23.90
2024-03-05T18:27:16.784Z,20.90
2024-03-05T18:29:48.590Z,20.30
2024-03-05T18:32:20.419Z,21.80
2024-03-05T18:34:52.911Z,19.90
2024-03-05T18:37:24.929Z,20.20
2024-03-05T18:39:57.078Z,20.20
2024-03-05T18:42:29.865Z,18.40
2024-03-05T18:45:05.467Z,19.90
2024-03-05T18:47:40.358Z,20.80
2024-03-05T18:50:15.642Z,21.80
2024-03-05T18:52:47.674Z,22.50
2024-03-05T18:55:19.773Z,20.30
2024-03-05T18:57:51.767Z,20.80
2024-03-05T19:00:24.633Z,21.50
2024-03-05T19:02:56.551Z,22.30
2024-03-05T19:05:28.540Z,20.70
2024-03-05T19:08:00.398Z,22.60
2024-03-05T19:10:32.837Z,21.00
2024-03-05T19:13:04.892Z,20.40
2024-03-05T19:15:38.099Z,20.70
2024-03-05T19:18:10.412Z,18.30
2024-03-05T19:20:43.635Z,17.00
2024-03-05T19:23:15.740Z,16.90
2024-03-05T19:25:47.659Z,16.00
2024-03-05T19:28:19.488Z,17.00
2024-03-05T19:30:52.163Z,19.30
2024-03-05T19:33:24.047Z,19.10
2024-03-05T19:35:55.968Z,20.10
2024-03-05T19:38:28.447Z,18.40
2024-03-05T19:41:00.537Z,18.60
2024-03-05T19:43:37.040Z,19.00
2024-03-05T19:48:40.141Z,17.20
2024-03-05T19:51:14.016Z,18.30
2024-03-05T19:53:49.427Z,17.40
2024-03-05T19:56:23.161Z,17.50
2024-03-05T19:58:57.835Z,18.80
2024-03-05T20:01:29.736Z,17.10
2024-03-05T20:04:01.656Z,19.00
2024-03-05T20:06:33.553Z,19.50
2024-03-05T20:09:08.180Z,20.20
2024-03-05T20:11:40.459Z,20.70
2024-03-05T20:14:13.117Z,21.10
2024-03-05T20:16:47.857Z,21.60
2024-03-05T20:19:20.817Z,20.50
2024-03-05T20:21:53.084Z,22.30
2024-03-05T20:24:24.977Z,21.80
2024-03-05T20:26:59.905Z,21.90
2024-03-05T20:29:31.938Z,23.00
2024-03-05T20:32:07.242Z,21.00
2024-03-05T20:34:39.626Z,21.60
2024-03-05T20:37:11.464Z,26.20
2024-03-05T20:39:45.937Z,24.50
2024-03-05T20:42:17.826Z,23.20
2024-03-05T20:44:49.564Z,21.20
2024-03-05T20:47:21.325Z,21.50
2024-03-05T20:49:53.433Z,21.00
2024-03-05T20:52:26.000Z,20.80
2024-03-05T20:54:58.053Z,22.20
2024-03-05T20:57:29.806Z,22.60
2024-03-05T21:00:07.767Z,23.90
2024-03-05T21:02:40.126Z,23.40
2024-03-05T21:05:14.560Z,24.40
2024-03-05T21:07:46.671Z,24.10
2024-03-05T21:10:18.474Z,21.10
2024-03-05T21:12:50.396Z,23.50
2024-03-05T21:15:22.459Z,22.90
2024-03-05T21:17:54.617Z,19.40
2024-03-05T21:20:26.691Z,21.40
2024-03-05T21:22:58.529Z,21.60
2024-03-05T21:25:36.564Z,24.00
2024-03-05T21:28:16.050Z,23.10
2024-03-05T21:30:47.858Z,23.00
2024-03-05T21:33:19.652Z,22.30
2024-03-05T21:35:51.485Z,21.50
2024-03-05T21:38:23.244Z,22.80
2024-03-05T21:40:55.070Z,21.70
2024-03-05T21:43:26.914Z,23.80
2024-03-05T21:45:58.657Z,24.00
2024-03-05T21:48:30.644Z,24.40
2024-03-05T21:51:09.171Z,22.80
2024-03-05T21:53:44.658Z,23.00
2024-03-05T21:56:19.533Z,24.80
2024-03-05T21:58:51.606Z,23.20
2024-03-05T22:01:23.738Z,23.90
2024-03-05T22:03:55.480Z,24.30
2024-03-05T22:06:27.240Z,22.90
2024-03-05T22:09:09.751Z,22.50
2024-03-05T22:11:42.868Z,21.30
2024-03-05T22:14:14.999Z,23.30
2024-03-05T22:16:46.841Z,22.20
2024-03-05T22:19:18.726Z,22.50
2024-03-05T22:21:50.678Z,21.40
2024-03-05T22:24:22.450Z,21.60
2024-03-05T22:26:54.251Z,21.00
2024-03-05T22:29:26.667Z,21.00
2024-03-05T22:31:58.580Z,21.10
2024-03-05T22:34:32.194Z,21.90
2024-03-05T22:37:04.326Z,21.90
2024-03-05T22:39:36.094Z,20.20
2024-03-05T22:42:07.970Z,22.00
2024-03-05T22:44:40.561Z,22.10
2024-03-05T22:47:12.378Z,22.10
2024-03-05T22:49:46.509Z,21.90
2024-03-05T22:52:21.042Z,19.80
2024-03-05T22:54:52.905Z,22.40
2024-03-05T22:57:25.544Z,20.30
2024-03-05T22:59:57.480Z,19.50
2024-03-05T23:02:29.333Z,20.10
2024-03-05T23:05:01.162Z,21.20
2024-03-05T23:07:33.058Z,21.40
2024-03-05T23:10:06.549Z,22.40
2024-03-05T23:12:38.536Z,23.60
2024-03-05T23:15:16.087Z,21.10
2024-03-05T23:17:48.674Z,20.50
2024-03-05T23:20:20.695Z,19.50
2024-03-05T23:22:52.545Z,20.60
2024-03-05T23:25:24.463Z,21.40
2024-03-05T23:27:57.670Z,22.10
2024-03-05T23:30:30.532Z,21.90
2024-03-05T23:33:02.468Z,21.60
2024-03-05T23:35:34.319Z,21.00
2024-03-05T23:38:07.870Z,23.50
2024-03-05T23:40:39.911Z,21.10
2024-03-05T23:43:11.688Z,21.90
2024-03-05T23:45:43.424Z,22.90
2024-03-05T23:48:15.228Z,21.60
2024-03-05T23:50:47.057Z,21.30
2024-03-05T23:53:19.273Z,21.30
2024-03-05T23:55:51.308Z,22.00
2024-03-05T23:58:23.150Z,21.90
